sensor_id;sensor_type;location;lat;lon;timestamp;pressure;altitude;pressure_sealevel;temperature;humidity
31331;BME280;34067;39.548;-76.088;2022-11-15T00:01:09;102873.18;;;1.46;55.98
31331;BME280;34067;39.548;-76.088;2022-11-15T00:03:41;102857.78;;;2.13;53.83
31331;BME280;34067;39.548;-76.088;2022-11-15T00:06:09;102854.53;;;2.41;52.91
31331;BME280;34067;39.548;-76.088;2022-11-15T00:08:36;102856.52;;;4.08;47.89
31331;BME280;34067;39.548;-76.088;2022-11-15T00:11:05;102856.28;;;3.42;46.99
31331;BME280;34067;39.548;-76.088;2022-11-15T00:13:32;102862.22;;;2.75;47.93
31331;BME280;34067;39.548;-76.088;2022-11-15T00:16:01;102860.45;;;3.44;46.85
31331;BME280;34067;39.548;-76.088;2022-11-15T00:18:30;102859.39;;;3.51;46.48
31331;BME280;34067;39.548;-76.088;2022-11-15T00:21:05;102867.61;;;3.16;47.66
31331;BME280;34067;39.548;-76.088;2022-11-15T00:23:34;102869.73;;;3.44;46.56
31331;BME280;34067;39.548;-76.088;2022-11-15T00:26:02;102867.55;;;2.25;48.87
31331;BME280;34067;39.548;-76.088;2022-11-15T00:28:30;102866.97;;;3.58;47.42
31331;BME280;34067;39.548;-76.088;2022-11-15T00:31:01;102863.11;;;3.16;48.42
31331;BME280;34067;39.548;-76.088;2022-11-15T00:33:29;102860.37;;;3.76;47.00
31331;BME280;34067;39.548;-76.088;2022-11-15T00:36:01;102858.84;;;2.39;49.57
31331;BME280;34067;39.548;-76.088;2022-11-15T00:38:32;102860.36;;;3.30;48.54
31331;BME280;34067;39.548;-76.088;2022-11-15T00:41:01;102865.22;;;4.15;47.78
31331;BME280;34067;39.548;-76.088;2022-11-15T00:43:29;102861.30;;;3.66;47.09
31331;BME280;34067;39.548;-76.088;2022-11-15T00:45:57;102863.51;;;3.80;47.33
31331;BME280;34067;39.548;-76.088;2022-11-15T00:48:24;102871.70;;;3.97;46.44
31331;BME280;34067;39.548;-76.088;2022-11-15T00:50:52;102874.43;;;3.95;46.57
31331;BME280;34067;39.548;-76.088;2022-11-15T00:53:20;102877.35;;;3.99;46.38
31331;BME280;34067;39.548;-76.088;2022-11-15T00:55:48;102877.45;;;4.08;46.62
31331;BME280;34067;39.548;-76.088;2022-11-15T00:58:16;102877.01;;;4.83;45.79
31331;BME280;34067;39.548;-76.088;2022-11-15T01:00:44;102873.31;;;3.88;47.56
31331;BME280;34067;39.548;-76.088;2022-11-15T01:03:12;102871.31;;;4.40;46.28
31331;BME280;34067;39.548;-76.088;2022-11-15T01:05:40;102869.64;;;5.06;45.69
31331;BME280;34067;39.548;-76.088;2022-11-15T01:08:12;102872.59;;;2.49;47.59
31331;BME280;34067;39.548;-76.088;2022-11-15T01:10:41;102874.94;;;3.86;46.92
31331;BME280;34067;39.548;-76.088;2022-11-15T01:13:09;102874.84;;;4.08;46.71
31331;BME280;34067;39.548;-76.088;2022-11-15T01:15:40;102873.98;;;3.60;47.16
31331;BME280;34067;39.548;-76.088;2022-11-15T01:18:09;102871.43;;;4.88;47.39
31331;BME280;34067;39.548;-76.088;2022-11-15T01:20:40;102872.86;;;4.57;47.02
31331;BME280;34067;39.548;-76.088;2022-11-15T01:23:08;102873.34;;;4.28;47.17
31331;BME280;34067;39.548;-76.088;2022-11-15T01:25:36;102878.73;;;2.51;50.20
31331;BME280;34067;39.548;-76.088;2022-11-15T01:28:04;102890.00;;;1.43;53.45
31331;BME280;34067;39.548;-76.088;2022-11-15T01:30:32;102885.22;;;2.47;51.53
31331;BME280;34067;39.548;-76.088;2022-11-15T01:33:00;102891.93;;;2.85;49.51
31331;BME280;34067;39.548;-76.088;2022-11-15T01:35:28;102892.97;;;3.90;48.79
31331;BME280;34067;39.548;-76.088;2022-11-15T01:37:55;102886.73;;;4.10;47.44
31331;BME280;34067;39.548;-76.088;2022-11-15T01:40:23;102897.23;;;3.85;48.13
31331;BME280;34067;39.548;-76.088;2022-11-15T01:42:51;102898.61;;;2.85;49.62
31331;BME280;34067;39.548;-76.088;2022-11-15T01:45:19;102904.10;;;2.95;48.43
31331;BME280;34067;39.548;-76.088;2022-11-15T01:47:50;102902.02;;;3.55;48.36
31331;BME280;34067;39.548;-76.088;2022-11-15T01:50:24;102901.11;;;4.54;46.97
31331;BME280;34067;39.548;-76.088;2022-11-15T01:52:56;102901.80;;;4.11;46.57
31331;BME280;34067;39.548;-76.088;2022-11-15T01:55:26;102917.13;;;2.62;48.54
31331;BME280;34067;39.548;-76.088;2022-11-15T01:57:57;102916.40;;;3.77;47.03
31331;BME280;34067;39.548;-76.088;2022-11-15T02:00:27;102916.96;;;4.21;46.63
31331;BME280;34067;39.548;-76.088;2022-11-15T02:02:56;102914.98;;;3.81;47.42
31331;BME280;34067;39.548;-76.088;2022-11-15T02:05:25;102916.39;;;3.29;47.95
31331;BME280;34067;39.548;-76.088;2022-11-15T02:07:53;102917.60;;;3.62;46.79
31331;BME280;34067;39.548;-76.088;2022-11-15T02:10:24;102914.65;;;3.12;47.65
31331;BME280;34067;39.548;-76.088;2022-11-15T02:12:53;102919.81;;;3.33;47.76
31331;BME280;34067;39.548;-76.088;2022-11-15T02:15:26;102919.85;;;1.79;49.74
31331;BME280;34067;39.548;-76.088;2022-11-15T02:18:06;102925.47;;;2.71;51.07
31331;BME280;34067;39.548;-76.088;2022-11-15T02:21:17;102933.97;;;1.48;53.31
31331;BME280;34067;39.548;-76.088;2022-11-15T02:25:09;102929.44;;;2.19;54.01
31331;BME280;34067;39.548;-76.088;2022-11-15T02:28:13;102932.32;;;2.28;53.71
31331;BME280;34067;39.548;-76.088;2022-11-15T02:30:46;102942.49;;;1.96;56.73
31331;BME280;34067;39.548;-76.088;2022-11-15T02:33:28;102942.40;;;1.07;55.93
31331;BME280;34067;39.548;-76.088;2022-11-15T02:36:01;102952.66;;;2.07;56.16
31331;BME280;34067;39.548;-76.088;2022-11-15T02:38:37;102948.61;;;1.98;51.28
31331;BME280;34067;39.548;-76.088;2022-11-15T02:41:11;102945.74;;;2.95;50.68
31331;BME280;34067;39.548;-76.088;2022-11-15T02:43:46;102935.03;;;3.22;51.41
31331;BME280;34067;39.548;-76.088;2022-11-15T02:46:21;102947.69;;;0.88;58.15
31331;BME280;34067;39.548;-76.088;2022-11-15T02:48:52;102950.42;;;1.56;62.98
31331;BME280;34067;39.548;-76.088;2022-11-15T02:51:21;102948.98;;;0.41;60.95
31331;BME280;34067;39.548;-76.088;2022-11-15T02:53:49;102948.66;;;1.24;52.57
31331;BME280;34067;39.548;-76.088;2022-11-15T02:56:17;102954.69;;;0.95;55.41
31331;BME280;34067;39.548;-76.088;2022-11-15T02:59:06;102960.47;;;1.61;57.50
31331;BME280;34067;39.548;-76.088;2022-11-15T03:01:52;102961.17;;;0.93;55.11
31331;BME280;34067;39.548;-76.088;2022-11-15T03:04:29;102961.26;;;1.16;57.66
31331;BME280;34067;39.548;-76.088;2022-11-15T03:07:10;102965.34;;;2.55;51.01
31331;BME280;34067;39.548;-76.088;2022-11-15T03:09:48;102971.17;;;1.75;51.11
31331;BME280;34067;39.548;-76.088;2022-11-15T03:12:25;102958.03;;;2.61;49.84
31331;BME280;34067;39.548;-76.088;2022-11-15T03:14:59;102962.75;;;2.63;49.61
31331;BME280;34067;39.548;-76.088;2022-11-15T03:17:30;102963.87;;;2.26;50.05
31331;BME280;34067;39.548;-76.088;2022-11-15T03:20:07;102962.49;;;2.27;50.05
31331;BME280;34067;39.548;-76.088;2022-11-15T03:22:39;102965.66;;;2.68;50.01
31331;BME280;34067;39.548;-76.088;2022-11-15T03:25:10;102968.08;;;2.17;50.95
31331;BME280;34067;39.548;-76.088;2022-11-15T03:27:44;102966.57;;;2.00;50.73
31331;BME280;34067;39.548;-76.088;2022-11-15T03:30:14;102966.73;;;1.28;51.85
31331;BME280;34067;39.548;-76.088;2022-11-15T03:32:46;102958.12;;;1.99;50.03
31331;BME280;34067;39.548;-76.088;2022-11-15T03:35:17;102951.86;;;2.86;49.55
31331;BME280;34067;39.548;-76.088;2022-11-15T03:37:50;102954.75;;;2.67;50.72
31331;BME280;34067;39.548;-76.088;2022-11-15T03:40:24;102955.51;;;1.35;50.85
31331;BME280;34067;39.548;-76.088;2022-11-15T03:43:00;102957.70;;;1.82;51.74
31331;BME280;34067;39.548;-76.088;2022-11-15T03:45:32;102962.03;;;1.70;51.23
31331;BME280;34067;39.548;-76.088;2022-11-15T03:48:09;102959.49;;;2.36;51.92
31331;BME280;34067;39.548;-76.088;2022-11-15T03:50:39;102959.77;;;1.75;55.41
31331;BME280;34067;39.548;-76.088;2022-11-15T03:53:07;102947.21;;;1.91;60.07
31331;BME280;34067;39.548;-76.088;2022-11-15T03:55:36;102945.56;;;1.79;59.10
31331;BME280;34067;39.548;-76.088;2022-11-15T03:58:04;102948.38;;;0.47;58.91
31331;BME280;34067;39.548;-76.088;2022-11-15T04:00:32;102954.08;;;1.04;59.47
31331;BME280;34067;39.548;-76.088;2022-11-15T04:03:01;102956.13;;;0.77;57.47
31331;BME280;34067;39.548;-76.088;2022-11-15T04:05:29;102959.85;;;1.69;54.85
31331;BME280;34067;39.548;-76.088;2022-11-15T04:07:57;102962.18;;;2.04;53.21
31331;BME280;34067;39.548;-76.088;2022-11-15T04:10:25;102952.49;;;2.62;50.97
31331;BME280;34067;39.548;-76.088;2022-11-15T04:12:54;102948.47;;;2.64;50.06
31331;BME280;34067;39.548;-76.088;2022-11-15T04:15:23;102948.79;;;2.03;52.85
31331;BME280;34067;39.548;-76.088;2022-11-15T04:17:52;102945.00;;;2.20;54.57
31331;BME280;34067;39.548;-76.088;2022-11-15T04:20:22;102943.14;;;0.30;62.63
31331;BME280;34067;39.548;-76.088;2022-11-15T04:22:53;102946.54;;;1.63;62.07
31331;BME280;34067;39.548;-76.088;2022-11-15T04:25:21;102940.25;;;1.10;67.66
31331;BME280;34067;39.548;-76.088;2022-11-15T04:27:49;102936.26;;;1.06;68.72
31331;BME280;34067;39.548;-76.088;2022-11-15T04:30:17;102933.87;;;1.50;62.76
31331;BME280;34067;39.548;-76.088;2022-11-15T04:32:45;102932.43;;;1.25;63.42
31331;BME280;34067;39.548;-76.088;2022-11-15T04:35:13;102925.16;;;1.78;60.89
31331;BME280;34067;39.548;-76.088;2022-11-15T04:37:41;102924.92;;;0.73;67.70
31331;BME280;34067;39.548;-76.088;2022-11-15T04:40:10;102941.28;;;0.54;68.54
31331;BME280;34067;39.548;-76.088;2022-11-15T04:42:40;102946.61;;;0.93;65.14
31331;BME280;34067;39.548;-76.088;2022-11-15T04:45:09;102944.33;;;1.86;64.58
31331;BME280;34067;39.548;-76.088;2022-11-15T04:47:37;102941.15;;;2.73;58.38
31331;BME280;34067;39.548;-76.088;2022-11-15T04:50:06;102947.08;;;3.03;55.94
31331;BME280;34067;39.548;-76.088;2022-11-15T04:52:33;102948.68;;;2.35;59.63
31331;BME280;34067;39.548;-76.088;2022-11-15T04:55:01;102950.44;;;1.23;59.54
31331;BME280;34067;39.548;-76.088;2022-11-15T04:57:29;102957.50;;;2.11;55.92
31331;BME280;34067;39.548;-76.088;2022-11-15T04:59:57;102962.06;;;1.71;57.45
31331;BME280;34067;39.548;-76.088;2022-11-15T05:02:25;102966.34;;;3.20;54.10
31331;BME280;34067;39.548;-76.088;2022-11-15T05:04:53;102967.08;;;2.04;55.72
31331;BME280;34067;39.548;-76.088;2022-11-15T05:07:20;102965.58;;;1.69;52.90
31331;BME280;34067;39.548;-76.088;2022-11-15T05:09:48;102969.10;;;1.06;53.40
31331;BME280;34067;39.548;-76.088;2022-11-15T05:12:16;102963.68;;;1.93;52.01
31331;BME280;34067;39.548;-76.088;2022-11-15T05:14:44;102958.93;;;2.71;49.02
31331;BME280;34067;39.548;-76.088;2022-11-15T05:17:12;102959.65;;;2.96;49.59
31331;BME280;34067;39.548;-76.088;2022-11-15T05:19:40;102960.59;;;2.76;51.51
31331;BME280;34067;39.548;-76.088;2022-11-15T05:22:09;102958.67;;;3.08;48.72
31331;BME280;34067;39.548;-76.088;2022-11-15T05:24:37;102956.14;;;3.20;48.13
31331;BME280;34067;39.548;-76.088;2022-11-15T05:27:05;102960.22;;;0.92;50.70
31331;BME280;34067;39.548;-76.088;2022-11-15T05:29:33;102963.37;;;1.81;51.04
31331;BME280;34067;39.548;-76.088;2022-11-15T05:32:00;102971.74;;;1.74;53.52
31331;BME280;34067;39.548;-76.088;2022-11-15T05:34:29;102978.92;;;1.67;52.74
31331;BME280;34067;39.548;-76.088;2022-11-15T05:36:58;102978.10;;;1.68;50.80
31331;BME280;34067;39.548;-76.088;2022-11-15T05:39:26;102983.97;;;1.77;52.43
31331;BME280;34067;39.548;-76.088;2022-11-15T05:41:56;102985.93;;;2.26;53.17
31331;BME280;34067;39.548;-76.088;2022-11-15T05:44:27;102978.45;;;1.36;51.21
31331;BME280;34067;39.548;-76.088;2022-11-15T05:46:56;102980.84;;;1.82;52.38
31331;BME280;34067;39.548;-76.088;2022-11-15T05:49:27;102970.95;;;0.86;52.43
31331;BME280;34067;39.548;-76.088;2022-11-15T05:51:57;102966.44;;;1.85;51.21
31331;BME280;34067;39.548;-76.088;2022-11-15T05:54:26;102960.98;;;2.20;50.37
31331;BME280;34067;39.548;-76.088;2022-11-15T05:56:54;102955.53;;;1.59;52.14
31331;BME280;34067;39.548;-76.088;2022-11-15T05:59:23;102947.77;;;2.17;50.49
31331;BME280;34067;39.548;-76.088;2022-11-15T06:03:10;102945.33;;;2.02;50.99
31331;BME280;34067;39.548;-76.088;2022-11-15T06:05:38;102938.16;;;1.86;50.30
31331;BME280;34067;39.548;-76.088;2022-11-15T06:08:06;102938.18;;;2.19;50.89
31331;BME280;34067;39.548;-76.088;2022-11-15T06:10:34;102937.10;;;2.84;50.53
31331;BME280;34067;39.548;-76.088;2022-11-15T06:13:04;102939.33;;;1.05;53.76
31331;BME280;34067;39.548;-76.088;2022-11-15T06:15:33;102937.27;;;2.14;52.27
31331;BME280;34067;39.548;-76.088;2022-11-15T06:18:01;102929.92;;;2.50;48.93
31331;BME280;34067;39.548;-76.088;2022-11-15T06:20:29;102922.95;;;2.95;48.41
31331;BME280;34067;39.548;-76.088;2022-11-15T06:22:58;102925.82;;;2.88;49.22
31331;BME280;34067;39.548;-76.088;2022-11-15T06:25:26;102926.77;;;2.71;49.91
31331;BME280;34067;39.548;-76.088;2022-11-15T06:27:55;102925.55;;;1.95;48.62
31331;BME280;34067;39.548;-76.088;2022-11-15T06:30:24;102917.87;;;2.04;49.93
31331;BME280;34067;39.548;-76.088;2022-11-15T06:33:08;102907.60;;;2.45;49.80
31331;BME280;34067;39.548;-76.088;2022-11-15T06:35:36;102912.31;;;2.15;49.60
31331;BME280;34067;39.548;-76.088;2022-11-15T06:38:06;102914.16;;;2.07;49.61
31331;BME280;34067;39.548;-76.088;2022-11-15T06:40:35;102922.67;;;1.93;50.71
31331;BME280;34067;39.548;-76.088;2022-11-15T06:43:04;102935.16;;;1.59;49.92
31331;BME280;34067;39.548;-76.088;2022-11-15T06:45:33;102939.84;;;2.16;49.62
31331;BME280;34067;39.548;-76.088;2022-11-15T06:48:01;102937.88;;;2.06;49.82
31331;BME280;34067;39.548;-76.088;2022-11-15T06:50:30;102934.84;;;3.24;47.56
31331;BME280;34067;39.548;-76.088;2022-11-15T06:53:01;102951.58;;;1.54;49.01
31331;BME280;34067;39.548;-76.088;2022-11-15T06:55:29;102956.55;;;2.60;48.53
31331;BME280;34067;39.548;-76.088;2022-11-15T06:57:57;102954.39;;;1.55;48.79
31331;BME280;34067;39.548;-76.088;2022-11-15T07:00:25;102954.52;;;2.48;48.96
31331;BME280;34067;39.548;-76.088;2022-11-15T07:02:53;102959.86;;;1.52;48.86
31331;BME280;34067;39.548;-76.088;2022-11-15T07:05:22;102962.35;;;0.97;51.16
31331;BME280;34067;39.548;-76.088;2022-11-15T07:07:53;102953.08;;;2.17;48.02
31331;BME280;34067;39.548;-76.088;2022-11-15T07:10:23;102956.95;;;2.43;48.22
31331;BME280;34067;39.548;-76.088;2022-11-15T07:12:52;102952.63;;;2.43;47.77
31331;BME280;34067;39.548;-76.088;2022-11-15T07:15:21;102962.32;;;0.96;51.24
31331;BME280;34067;39.548;-76.088;2022-11-15T07:17:51;102963.93;;;2.45;46.59
31331;BME280;34067;39.548;-76.088;2022-11-15T07:20:19;102970.09;;;1.33;49.35
31331;BME280;34067;39.548;-76.088;2022-11-15T07:22:48;102964.21;;;1.56;48.67
31331;BME280;34067;39.548;-76.088;2022-11-15T07:25:15;102954.39;;;1.94;49.03
31331;BME280;34067;39.548;-76.088;2022-11-15T07:27:44;102954.27;;;1.88;47.70
31331;BME280;34067;39.548;-76.088;2022-11-15T07:30:12;102959.52;;;2.44;49.79
31331;BME280;34067;39.548;-76.088;2022-11-15T07:32:40;102957.09;;;1.42;48.29
31331;BME280;34067;39.548;-76.088;2022-11-15T07:35:08;102947.67;;;0.76;50.52
31331;BME280;34067;39.548;-76.088;2022-11-15T07:37:36;102939.41;;;1.93;50.84
31331;BME280;34067;39.548;-76.088;2022-11-15T07:40:05;102929.27;;;1.15;52.01
31331;BME280;34067;39.548;-76.088;2022-11-15T07:42:33;102926.58;;;1.20;53.88
31331;BME280;34067;39.548;-76.088;2022-11-15T07:45:01;102926.52;;;0.73;51.18
31331;BME280;34067;39.548;-76.088;2022-11-15T07:47:29;102929.79;;;0.99;51.76
31331;BME280;34067;39.548;-76.088;2022-11-15T07:49:57;102945.97;;;-0.19;54.51
31331;BME280;34067;39.548;-76.088;2022-11-15T07:52:24;102945.00;;;0.42;51.44
31331;BME280;34067;39.548;-76.088;2022-11-15T07:54:52;102930.97;;;1.91;51.48
31331;BME280;34067;39.548;-76.088;2022-11-15T07:57:20;102919.59;;;0.38;52.61
31331;BME280;34067;39.548;-76.088;2022-11-15T07:59:48;102924.89;;;2.13;52.33
31331;BME280;34067;39.548;-76.088;2022-11-15T08:02:15;102941.18;;;2.17;51.87
31331;BME280;34067;39.548;-76.088;2022-11-15T08:04:43;102949.11;;;1.78;50.29
31331;BME280;34067;39.548;-76.088;2022-11-15T08:07:10;102938.13;;;0.29;53.42
31331;BME280;34067;39.548;-76.088;2022-11-15T08:09:38;102916.51;;;0.03;54.69
31331;BME280;34067;39.548;-76.088;2022-11-15T08:12:06;102914.35;;;0.36;55.90
31331;BME280;34067;39.548;-76.088;2022-11-15T08:14:35;102936.04;;;-0.67;57.40
31331;BME280;34067;39.548;-76.088;2022-11-15T08:17:03;102942.39;;;-0.80;58.72
31331;BME280;34067;39.548;-76.088;2022-11-15T08:19:32;102948.12;;;0.07;60.30
31331;BME280;34067;39.548;-76.088;2022-11-15T08:22:00;102949.94;;;0.40;57.38
31331;BME280;34067;39.548;-76.088;2022-11-15T08:24:28;102944.91;;;-1.31;62.82
31331;BME280;34067;39.548;-76.088;2022-11-15T08:26:55;102954.43;;;0.10;62.74
31331;BME280;34067;39.548;-76.088;2022-11-15T08:29:23;102974.81;;;-0.94;58.82
31331;BME280;34067;39.548;-76.088;2022-11-15T08:31:51;102982.57;;;-0.59;60.22
31331;BME280;34067;39.548;-76.088;2022-11-15T08:34:22;102993.40;;;-1.41;63.40
31331;BME280;34067;39.548;-76.088;2022-11-15T08:36:51;103003.44;;;-0.07;63.68
31331;BME280;34067;39.548;-76.088;2022-11-15T08:39:19;103013.11;;;-0.66;61.85
31331;BME280;34067;39.548;-76.088;2022-11-15T08:41:47;103003.99;;;-0.11;59.29
31331;BME280;34067;39.548;-76.088;2022-11-15T08:44:14;103002.07;;;0.14;61.43
31331;BME280;34067;39.548;-76.088;2022-11-15T08:46:42;103017.69;;;-0.49;64.21
31331;BME280;34067;39.548;-76.088;2022-11-15T08:49:09;103020.60;;;0.33;59.50
31331;BME280;34067;39.548;-76.088;2022-11-15T08:51:37;103020.28;;;0.36;60.69
31331;BME280;34067;39.548;-76.088;2022-11-15T08:54:05;103021.29;;;-1.08;59.92
31331;BME280;34067;39.548;-76.088;2022-11-15T08:56:33;103020.98;;;-0.91;62.67
31331;BME280;34067;39.548;-76.088;2022-11-15T08:59:00;103025.90;;;-0.08;61.64
31331;BME280;34067;39.548;-76.088;2022-11-15T09:01:28;103039.42;;;-0.48;59.51
31331;BME280;34067;39.548;-76.088;2022-11-15T09:03:56;103032.76;;;-0.15;60.70
31331;BME280;34067;39.548;-76.088;2022-11-15T09:06:24;103022.64;;;-0.90;59.92
31331;BME280;34067;39.548;-76.088;2022-11-15T09:08:51;103007.14;;;-1.24;59.19
31331;BME280;34067;39.548;-76.088;2022-11-15T09:11:19;102992.34;;;-0.38;61.35
31331;BME280;34067;39.548;-76.088;2022-11-15T09:13:47;102981.04;;;-1.10;61.16
31331;BME280;34067;39.548;-76.088;2022-11-15T09:16:14;102989.51;;;-2.09;62.84
31331;BME280;34067;39.548;-76.088;2022-11-15T09:18:42;103008.15;;;-0.34;59.35
31331;BME280;34067;39.548;-76.088;2022-11-15T09:21:10;103024.67;;;-0.32;59.53
31331;BME280;34067;39.548;-76.088;2022-11-15T09:23:38;103031.65;;;-1.33;60.52
31331;BME280;34067;39.548;-76.088;2022-11-15T09:26:06;103036.22;;;-0.90;60.62
31331;BME280;34067;39.548;-76.088;2022-11-15T09:28:34;103031.81;;;-0.31;60.11
31331;BME280;34067;39.548;-76.088;2022-11-15T09:31:05;103030.16;;;-0.53;59.05
31331;BME280;34067;39.548;-76.088;2022-11-15T09:33:33;103017.88;;;-1.50;61.00
31331;BME280;34067;39.548;-76.088;2022-11-15T09:36:01;103003.61;;;-1.65;61.86
31331;BME280;34067;39.548;-76.088;2022-11-15T09:38:30;102982.75;;;-0.20;60.04
31331;BME280;34067;39.548;-76.088;2022-11-15T09:41:20;102991.14;;;-0.22;60.62
31331;BME280;34067;39.548;-76.088;2022-11-15T09:44:01;102999.24;;;-0.70;60.15
31331;BME280;34067;39.548;-76.088;2022-11-15T09:46:38;102993.41;;;-0.52;60.61
31331;BME280;34067;39.548;-76.088;2022-11-15T09:49:13;102987.10;;;0.22;57.32
31331;BME280;34067;39.548;-76.088;2022-11-15T09:51:44;102994.53;;;-1.42;57.89
31331;BME280;34067;39.548;-76.088;2022-11-15T09:54:18;103003.21;;;-0.75;57.84
31331;BME280;34067;39.548;-76.088;2022-11-15T09:56:50;103000.69;;;-0.42;57.69
31331;BME280;34067;39.548;-76.088;2022-11-15T09:59:33;103001.86;;;1.15;56.86
31331;BME280;34067;39.548;-76.088;2022-11-15T10:02:22;103011.64;;;-0.56;55.92
31331;BME280;34067;39.548;-76.088;2022-11-15T10:04:52;102999.38;;;-0.05;58.53
31331;BME280;34067;39.548;-76.088;2022-11-15T10:07:26;102987.74;;;0.45;57.17
31331;BME280;34067;39.548;-76.088;2022-11-15T10:09:58;102984.56;;;0.03;55.95
31331;BME280;34067;39.548;-76.088;2022-11-15T10:12:30;102985.54;;;0.70;54.95
31331;BME280;34067;39.548;-76.088;2022-11-15T10:15:05;102981.62;;;0.30;56.86
31331;BME280;34067;39.548;-76.088;2022-11-15T10:18:01;102985.60;;;0.63;56.11
31331;BME280;34067;39.548;-76.088;2022-11-15T10:20:38;102998.49;;;-1.24;56.67
31331;BME280;34067;39.548;-76.088;2022-11-15T10:23:14;103007.86;;;-1.04;55.82
31331;BME280;34067;39.548;-76.088;2022-11-15T10:25:43;103014.93;;;-1.33;58.85
31331;BME280;34067;39.548;-76.088;2022-11-15T10:28:16;103027.97;;;-0.04;56.92
31331;BME280;34067;39.548;-76.088;2022-11-15T10:30:46;103027.31;;;0.71;55.65
31331;BME280;34067;39.548;-76.088;2022-11-15T10:33:25;103017.70;;;0.29;56.10
31331;BME280;34067;39.548;-76.088;2022-11-15T10:36:20;103017.51;;;-0.03;57.11
31331;BME280;34067;39.548;-76.088;2022-11-15T10:38:57;103015.41;;;-0.41;55.96
31331;BME280;34067;39.548;-76.088;2022-11-15T10:41:37;103007.58;;;-0.91;56.59
31331;BME280;34067;39.548;-76.088;2022-11-15T10:44:26;103005.56;;;-0.02;56.35
31331;BME280;34067;39.548;-76.088;2022-11-15T10:47:28;102999.12;;;0.64;57.38
31331;BME280;34067;39.548;-76.088;2022-11-15T10:49:59;102998.04;;;-1.64;58.09
31331;BME280;34067;39.548;-76.088;2022-11-15T10:52:29;102996.29;;;-0.06;57.50
31331;BME280;34067;39.548;-76.088;2022-11-15T10:55:02;102989.75;;;-0.80;57.31
31331;BME280;34067;39.548;-76.088;2022-11-15T10:57:33;102983.02;;;-0.05;56.03
31331;BME280;34067;39.548;-76.088;2022-11-15T11:00:12;102976.74;;;-1.16;59.62
31331;BME280;34067;39.548;-76.088;2022-11-15T11:02:58;102973.27;;;-1.08;55.52
31331;BME280;34067;39.548;-76.088;2022-11-15T11:05:29;102978.63;;;-0.04;54.74
31331;BME280;34067;39.548;-76.088;2022-11-15T11:08:02;102979.67;;;-0.34;57.04
31331;BME280;34067;39.548;-76.088;2022-11-15T11:10:30;102981.54;;;-0.79;56.87
31331;BME280;34067;39.548;-76.088;2022-11-15T11:13:13;102977.30;;;-0.56;57.28
31331;BME280;34067;39.548;-76.088;2022-11-15T11:15:45;102979.47;;;-0.26;58.06
31331;BME280;34067;39.548;-76.088;2022-11-15T11:18:21;102979.99;;;0.11;56.03
31331;BME280;34067;39.548;-76.088;2022-11-15T11:20:57;102993.41;;;-1.71;55.70
31331;BME280;34067;39.548;-76.088;2022-11-15T11:23:45;103006.56;;;0.24;56.17
31331;BME280;34067;39.548;-76.088;2022-11-15T11:26:49;103010.64;;;-0.60;58.55
31331;BME280;34067;39.548;-76.088;2022-11-15T11:29:32;103011.11;;;-0.40;57.12
31331;BME280;34067;39.548;-76.088;2022-11-15T11:32:17;103009.31;;;-0.08;55.91
31331;BME280;34067;39.548;-76.088;2022-11-15T11:35:01;103013.12;;;-0.04;55.28
31331;BME280;34067;39.548;-76.088;2022-11-15T11:37:37;103014.42;;;0.15;57.25
31331;BME280;34067;39.548;-76.088;2022-11-15T11:40:19;103016.33;;;0.49;57.15
31331;BME280;34067;39.548;-76.088;2022-11-15T11:42:54;103019.59;;;0.29;56.90
31331;BME280;34067;39.548;-76.088;2022-11-15T11:45:43;103017.77;;;-0.64;59.48
31331;BME280;34067;39.548;-76.088;2022-11-15T11:48:18;103012.53;;;0.15;56.75
31331;BME280;34067;39.548;-76.088;2022-11-15T11:50:49;103017.79;;;-0.42;56.40
31331;BME280;34067;39.548;-76.088;2022-11-15T11:53:25;103031.18;;;0.33;55.73
31331;BME280;34067;39.548;-76.088;2022-11-15T11:55:58;103035.64;;;0.04;57.15
31331;BME280;34067;39.548;-76.088;2022-11-15T11:58:35;103038.80;;;-0.03;57.97
31331;BME280;34067;39.548;-76.088;2022-11-15T12:01:12;103038.74;;;0.17;55.70
31331;BME280;34067;39.548;-76.088;2022-11-15T12:03:45;103044.43;;;0.02;57.19
31331;BME280;34067;39.548;-76.088;2022-11-15T12:06:22;103042.27;;;1.09;58.61
31331;BME280;34067;39.548;-76.088;2022-11-15T12:08:56;103042.03;;;-0.49;58.38
31331;BME280;34067;39.548;-76.088;2022-11-15T12:11:34;103036.01;;;-0.83;64.13
31331;BME280;34067;39.548;-76.088;2022-11-15T12:14:09;103032.72;;;0.35;59.71
31331;BME280;34067;39.548;-76.088;2022-11-15T12:16:43;103030.23;;;0.64;56.92
31331;BME280;34067;39.548;-76.088;2022-11-15T12:19:11;103028.06;;;0.87;58.32
31331;BME280;34067;39.548;-76.088;2022-11-15T12:21:44;103024.50;;;-0.46;58.84
31331;BME280;34067;39.548;-76.088;2022-11-15T12:24:18;103021.25;;;0.09;58.35
31331;BME280;34067;39.548;-76.088;2022-11-15T12:26:52;103025.63;;;-0.03;59.94
31331;BME280;34067;39.548;-76.088;2022-11-15T12:29:26;103021.24;;;0.49;56.61
31331;BME280;34067;39.548;-76.088;2022-11-15T12:31:56;103023.78;;;-0.20;56.14
31331;BME280;34067;39.548;-76.088;2022-11-15T12:34:58;103025.32;;;-0.24;56.07
31331;BME280;34067;39.548;-76.088;2022-11-15T12:37:48;103033.01;;;0.44;57.09
31331;BME280;34067;39.548;-76.088;2022-11-15T12:40:22;103026.25;;;0.95;56.26
31331;BME280;34067;39.548;-76.088;2022-11-15T12:43:50;103017.05;;;1.64;55.23
31331;BME280;34067;39.548;-76.088;2022-11-15T12:46:59;103020.08;;;0.19;56.94
31331;BME280;34067;39.548;-76.088;2022-11-15T12:49:45;103022.18;;;0.08;56.77
31331;BME280;34067;39.548;-76.088;2022-11-15T12:52:15;103028.23;;;0.87;57.08
31331;BME280;34067;39.548;-76.088;2022-11-15T12:55:00;103041.09;;;0.81;56.68
31331;BME280;34067;39.548;-76.088;2022-11-15T12:57:41;103041.48;;;0.65;54.91
31331;BME280;34067;39.548;-76.088;2022-11-15T13:00:42;103039.60;;;1.73;55.69
31331;BME280;34067;39.548;-76.088;2022-11-15T13:03:20;103042.90;;;0.73;55.72
31331;BME280;34067;39.548;-76.088;2022-11-15T13:06:07;103037.69;;;1.74;54.05